sensor_id;sensor_type;location;lat;lon;timestamp;temperature;humidity
9466;DHT22;4771;48.726;9.006;2023-03-01T00:00:04;1.10;99.90
9466;DHT22;4771;48.726;9.006;2023-03-01T00:02:32;1.10;99.90
9466;DHT22;4771;48.726;9.006;2023-03-01T00:05:00;1.10;99.90
9466;DHT22;4771;48.726;9.006;2023-03-01T00:07:27;1.10;99.90
9466;DHT22;4771;48.726;9.006;2023-03-01T00:09:54;1.10;99.90
9466;DHT22;4771;48.726;9.006;2023-03-01T00:12:21;1.10;99.90
9466;DHT22;4771;48.726;9.006;2023-03-01T00:14:47;1.10;99.90
9466;DHT22;4771;48.726;9.006;2023-03-01T00:17:14;1.10;99.90
9466;DHT22;4771;48.726;9.006;2023-03-01T00:19:41;1.10;99.90
9466;DHT22;4771;48.726;9.006;2023-03-01T00:22:09;1.70;99.90
9466;DHT22;4771;48.726;9.006;2023-03-01T00:24:36;1.10;99.90
9466;DHT22;4771;48.726;9.006;2023-03-01T00:27:03;1.10;99.90
9466;DHT22;4771;48.726;9.006;2023-03-01T00:29:30;1.10;99.90
9466;DHT22;4771;48.726;9.006;2023-03-01T00:31:57;1.00;99.90
9466;DHT22;4771;48.726;9.006;2023-03-01T00:34:23;0.80;99.90
9466;DHT22;4771;48.726;9.006;2023-03-01T00:36:50;0.80;99.90
9466;DHT22;4771;48.726;9.006;2023-03-01T00:39:18;0.40;99.90
9466;DHT22;4771;48.726;9.006;2023-03-01T00:41:45;0.80;99.90
9466;DHT22;4771;48.726;9.006;2023-03-01T00:44:12;0.90;99.90
9466;DHT22;4771;48.726;9.006;2023-03-01T00:46:39;0.90;99.90
9466;DHT22;4771;48.726;9.006;2023-03-01T00:49:06;0.80;99.90
9466;DHT22;4771;48.726;9.006;2023-03-01T00:51:33;0.80;99.90
9466;DHT22;4771;48.726;9.006;2023-03-01T00:54:01;0.80;99.90
9466;DHT22;4771;48.726;9.006;2023-03-01T00:56:30;0.90;99.90
9466;DHT22;4771;48.726;9.006;2023-03-01T00:58:57;0.70;99.90
9466;DHT22;4771;48.726;9.006;2023-03-01T01:01:25;0.70;99.90
9466;DHT22;4771;48.726;9.006;2023-03-01T01:03:57;0.70;99.90
9466;DHT22;4771;48.726;9.006;2023-03-01T01:06:25;0.70;99.90
9466;DHT22;4771;48.726;9.006;2023-03-01T01:08:54;0.70;99.90
9466;DHT22;4771;48.726;9.006;2023-03-01T01:11:23;0.80;99.90
9466;DHT22;4771;48.726;9.006;2023-03-01T01:13:51;0.80;99.90
9466;DHT22;4771;48.726;9.006;2023-03-01T01:16:19;0.90;99.90
9466;DHT22;4771;48.726;9.006;2023-03-01T01:18:47;0.90;99.90
9466;DHT22;4771;48.726;9.006;2023-03-01T01:21:16;0.90;99.90
9466;DHT22;4771;48.726;9.006;2023-03-01T01:23:45;0.90;99.90
9466;DHT22;4771;48.726;9.006;2023-03-01T01:26:14;0.70;99.90
9466;DHT22;4771;48.726;9.006;2023-03-01T01:28:41;0.50;99.90
9466;DHT22;4771;48.726;9.006;2023-03-01T01:31:09;0.50;99.90
9466;DHT22;4771;48.726;9.006;2023-03-01T01:33:36;0.50;99.90
9466;DHT22;4771;48.726;9.006;2023-03-01T01:36:04;0.30;99.90
9466;DHT22;4771;48.726;9.006;2023-03-01T01:38:31;0.40;99.90
9466;DHT22;4771;48.726;9.006;2023-03-01T01:40:58;0.50;99.90
9466;DHT22;4771;48.726;9.006;2023-03-01T01:43:27;0.60;99.90
9466;DHT22;4771;48.726;9.006;2023-03-01T01:45:55;0.60;99.90
9466;DHT22;4771;48.726;9.006;2023-03-01T01:48:28;0.70;99.90
9466;DHT22;4771;48.726;9.006;2023-03-01T01:51:06;0.70;99.90
9466;DHT22;4771;48.726;9.006;2023-03-01T01:53:37;0.50;99.90
9466;DHT22;4771;48.726;9.006;2023-03-01T01:56:08;0.60;99.90
9466;DHT22;4771;48.726;9.006;2023-03-01T01:58:36;0.70;99.90
9466;DHT22;4771;48.726;9.006;2023-03-01T02:01:04;0.70;99.90
9466;DHT22;4771;48.726;9.006;2023-03-01T02:03:34;0.80;99.90
9466;DHT22;4771;48.726;9.006;2023-03-01T02:06:05;0.70;99.90
9466;DHT22;4771;48.726;9.006;2023-03-01T02:08:36;0.70;99.90
9466;DHT22;4771;48.726;9.006;2023-03-01T02:11:05;0.70;99.90
9466;DHT22;4771;48.726;9.006;2023-03-01T02:13:33;0.70;99.90
9466;DHT22;4771;48.726;9.006;2023-03-01T02:16:03;0.60;99.90
9466;DHT22;4771;48.726;9.006;2023-03-01T02:18:32;0.40;99.90
9466;DHT22;4771;48.726;9.006;2023-03-01T02:21:09;0.40;99.90
9466;DHT22;4771;48.726;9.006;2023-03-01T02:23:36;0.30;99.90
9466;DHT22;4771;48.726;9.006;2023-03-01T02:26:07;0.40;99.90
9466;DHT22;4771;48.726;9.006;2023-03-01T02:28:39;0.50;99.90
9466;DHT22;4771;48.726;9.006;2023-03-01T02:31:08;0.40;99.90
9466;DHT22;4771;48.726;9.006;2023-03-01T02:33:53;0.50;99.90
9466;DHT22;4771;48.726;9.006;2023-03-01T02:36:24;0.70;99.90
9466;DHT22;4771;48.726;9.006;2023-03-01T02:38:55;0.70;99.90
9466;DHT22;4771;48.726;9.006;2023-03-01T02:41:25;0.60;99.90
9466;DHT22;4771;48.726;9.006;2023-03-01T02:43:54;0.60;99.90
9466;DHT22;4771;48.726;9.006;2023-03-01T02:46:24;0.70;99.90
9466;DHT22;4771;48.726;9.006;2023-03-01T02:48:53;0.80;99.90
9466;DHT22;4771;48.726;9.006;2023-03-01T02:51:34;0.80;99.90
9466;DHT22;4771;48.726;9.006;2023-03-01T02:54:12;1.00;99.90
9466;DHT22;4771;48.726;9.006;2023-03-01T02:56:42;1.20;99.90
9466;DHT22;4771;48.726;9.006;2023-03-01T02:59:11;1.20;99.90
9466;DHT22;4771;48.726;9.006;2023-03-01T03:01:38;1.10;99.90
9466;DHT22;4771;48.726;9.006;2023-03-01T03:04:06;1.20;99.90
9466;DHT22;4771;48.726;9.006;2023-03-01T03:06:34;1.20;99.90
9466;DHT22;4771;48.726;9.006;2023-03-01T03:09:01;1.20;99.90
9466;DHT22;4771;48.726;9.006;2023-03-01T03:11:28;1.20;99.90
9466;DHT22;4771;48.726;9.006;2023-03-01T03:13:56;1.20;99.90
9466;DHT22;4771;48.726;9.006;2023-03-01T03:16:25;1.10;99.90
9466;DHT22;4771;48.726;9.006;2023-03-01T03:18:52;1.30;99.90
9466;DHT22;4771;48.726;9.006;2023-03-01T03:21:18;1.30;99.90
9466;DHT22;4771;48.726;9.006;2023-03-01T03:23:45;1.20;99.90
9466;DHT22;4771;48.726;9.006;2023-03-01T03:26:12;1.30;99.90
9466;DHT22;4771;48.726;9.006;2023-03-01T03:28:40;1.30;99.90
9466;DHT22;4771;48.726;9.006;2023-03-01T03:31:07;1.30;99.90
9466;DHT22;4771;48.726;9.006;2023-03-01T03:33:36;1.30;99.90
9466;DHT22;4771;48.726;9.006;2023-03-01T03:36:03;1.40;99.90
9466;DHT22;4771;48.726;9.006;2023-03-01T03:38:30;1.30;99.90
9466;DHT22;4771;48.726;9.006;2023-03-01T03:41:02;1.30;99.90
9466;DHT22;4771;48.726;9.006;2023-03-01T03:43:31;1.20;99.90
9466;DHT22;4771;48.726;9.006;2023-03-01T03:45:59;1.30;99.90
9466;DHT22;4771;48.726;9.006;2023-03-01T03:48:26;1.30;99.90
9466;DHT22;4771;48.726;9.006;2023-03-01T03:50:55;1.30;99.90
9466;DHT22;4771;48.726;9.006;2023-03-01T03:53:24;1.40;99.90
9466;DHT22;4771;48.726;9.006;2023-03-01T03:55:52;1.30;99.90
9466;DHT22;4771;48.726;9.006;2023-03-01T03:58:21;1.10;99.90
9466;DHT22;4771;48.726;9.006;2023-03-01T04:00:50;1.20;99.90
9466;DHT22;4771;48.726;9.006;2023-03-01T04:03:19;1.30;99.90
9466;DHT22;4771;48.726;9.006;2023-03-01T04:05:48;1.40;99.90
9466;DHT22;4771;48.726;9.006;2023-03-01T04:08:17;1.50;99.90
9466;DHT22;4771;48.726;9.006;2023-03-01T04:10:47;1.50;99.90
9466;DHT22;4771;48.726;9.006;2023-03-01T04:13:16;1.40;99.90
9466;DHT22;4771;48.726;9.006;2023-03-01T04:15:45;1.50;99.90
9466;DHT22;4771;48.726;9.006;2023-03-01T04:18:14;1.50;99.90
9466;DHT22;4771;48.726;9.006;2023-03-01T04:20:42;1.60;99.90
9466;DHT22;4771;48.726;9.006;2023-03-01T04:23:13;1.60;99.90
9466;DHT22;4771;48.726;9.006;2023-03-01T04:25:46;1.40;99.90
9466;DHT22;4771;48.726;9.006;2023-03-01T04:28:15;1.30;99.90
9466;DHT22;4771;48.726;9.006;2023-03-01T04:30:42;1.90;99.90
9466;DHT22;4771;48.726;9.006;2023-03-01T04:33:10;1.30;99.90
9466;DHT22;4771;48.726;9.006;2023-03-01T04:35:38;1.40;99.90
9466;DHT22;4771;48.726;9.006;2023-03-01T04:38:06;1.40;99.90
9466;DHT22;4771;48.726;9.006;2023-03-01T04:40:33;1.60;99.90
9466;DHT22;4771;48.726;9.006;2023-03-01T04:43:02;1.60;99.90
9466;DHT22;4771;48.726;9.006;2023-03-01T04:45:30;1.60;99.90
9466;DHT22;4771;48.726;9.006;2023-03-01T04:47:57;1.60;99.90
9466;DHT22;4771;48.726;9.006;2023-03-01T04:50:24;1.60;99.90
9466;DHT22;4771;48.726;9.006;2023-03-01T04:52:52;1.70;99.90
9466;DHT22;4771;48.726;9.006;2023-03-01T04:55:19;1.70;99.90
9466;DHT22;4771;48.726;9.006;2023-03-01T04:57:46;1.70;99.90
9466;DHT22;4771;48.726;9.006;2023-03-01T05:00:15;1.70;99.90
9466;DHT22;4771;48.726;9.006;2023-03-01T05:02:49;1.80;99.90
9466;DHT22;4771;48.726;9.006;2023-03-01T05:05:29;1.80;99.90
9466;DHT22;4771;48.726;9.006;2023-03-01T05:07:58;1.80;99.90
9466;DHT22;4771;48.726;9.006;2023-03-01T05:10:27;1.70;99.90
9466;DHT22;4771;48.726;9.006;2023-03-01T05:12:54;1.70;99.90
9466;DHT22;4771;48.726;9.006;2023-03-01T05:15:24;1.70;99.90
9466;DHT22;4771;48.726;9.006;2023-03-01T05:17:52;1.70;99.90
9466;DHT22;4771;48.726;9.006;2023-03-01T05:20:20;1.80;99.90
9466;DHT22;4771;48.726;9.006;2023-03-01T05:22:49;1.80;99.90
9466;DHT22;4771;48.726;9.006;2023-03-01T05:25:16;1.80;99.90
9466;DHT22;4771;48.726;9.006;2023-03-01T05:27:43;1.80;99.90
9466;DHT22;4771;48.726;9.006;2023-03-01T05:30:11;1.80;99.90
9466;DHT22;4771;48.726;9.006;2023-03-01T05:32:45;1.80;99.90
9466;DHT22;4771;48.726;9.006;2023-03-01T05:35:12;1.80;99.90
9466;DHT22;4771;48.726;9.006;2023-03-01T05:37:41;1.80;99.90
9466;DHT22;4771;48.726;9.006;2023-03-01T05:40:10;1.70;99.90
9466;DHT22;4771;48.726;9.006;2023-03-01T05:42:44;1.70;99.90
9466;DHT22;4771;48.726;9.006;2023-03-01T05:45:12;1.80;99.90
9466;DHT22;4771;48.726;9.006;2023-03-01T05:47:39;1.80;99.90
9466;DHT22;4771;48.726;9.006;2023-03-01T05:50:11;1.80;99.90
9466;DHT22;4771;48.726;9.006;2023-03-01T05:52:39;1.90;99.90
9466;DHT22;4771;48.726;9.006;2023-03-01T05:55:07;1.90;99.90
9466;DHT22;4771;48.726;9.006;2023-03-01T05:57:34;1.90;99.90
9466;DHT22;4771;48.726;9.006;2023-03-01T06:00:00;1.90;99.90
9466;DHT22;4771;48.726;9.006;2023-03-01T06:02:28;2.00;99.90
9466;DHT22;4771;48.726;9.006;2023-03-01T06:04:55;2.00;99.90
9466;DHT22;4771;48.726;9.006;2023-03-01T06:07:24;1.90;99.90
9466;DHT22;4771;48.726;9.006;2023-03-01T06:09:50;1.90;99.90
9466;DHT22;4771;48.726;9.006;2023-03-01T06:12:17;2.00;99.90
9466;DHT22;4771;48.726;9.006;2023-03-01T06:14:45;2.00;99.90
9466;DHT22;4771;48.726;9.006;2023-03-01T06:17:13;2.00;99.90
9466;DHT22;4771;48.726;9.006;2023-03-01T06:19:40;2.00;99.90
9466;DHT22;4771;48.726;9.006;2023-03-01T06:22:07;2.00;99.90
9466;DHT22;4771;48.726;9.006;2023-03-01T06:24:35;2.00;99.90
9466;DHT22;4771;48.726;9.006;2023-03-01T06:27:02;2.00;99.90
9466;DHT22;4771;48.726;9.006;2023-03-01T06:29:29;2.10;99.90
9466;DHT22;4771;48.726;9.006;2023-03-01T06:31:56;2.10;99.90
9466;DHT22;4771;48.726;9.006;2023-03-01T06:34:23;1.90;99.90
9466;DHT22;4771;48.726;9.006;2023-03-01T06:36:49;1.70;99.90
9466;DHT22;4771;48.726;9.006;2023-03-01T06:39:16;1.70;99.90
9466;DHT22;4771;48.726;9.006;2023-03-01T06:41:45;1.70;99.90
9466;DHT22;4771;48.726;9.006;2023-03-01T06:44:12;1.70;99.90
9466;DHT22;4771;48.726;9.006;2023-03-01T06:46:39;1.70;99.90
9466;DHT22;4771;48.726;9.006;2023-03-01T06:49:06;1.60;99.90
9466;DHT22;4771;48.726;9.006;2023-03-01T06:51:35;1.60;99.90
9466;DHT22;4771;48.726;9.006;2023-03-01T06:54:02;1.70;99.90
9466;DHT22;4771;48.726;9.006;2023-03-01T06:56:29;1.80;99.90
9466;DHT22;4771;48.726;9.006;2023-03-01T06:58:57;1.80;99.90
9466;DHT22;4771;48.726;9.006;2023-03-01T07:01:24;1.90;99.90
9466;DHT22;4771;48.726;9.006;2023-03-01T07:03:51;1.80;99.90
9466;DHT22;4771;48.726;9.006;2023-03-01T07:06:18;1.70;99.90
9466;DHT22;4771;48.726;9.006;2023-03-01T07:08:45;1.60;99.90
9466;DHT22;4771;48.726;9.006;2023-03-01T07:11:11;2.40;99.90
9466;DHT22;4771;48.726;9.006;2023-03-01T07:13:38;1.70;99.90
9466;DHT22;4771;48.726;9.006;2023-03-01T07:16:07;1.80;99.90
9466;DHT22;4771;48.726;9.006;2023-03-01T07:18:34;1.80;99.90
9466;DHT22;4771;48.726;9.006;2023-03-01T07:21:04;1.80;99.90
9466;DHT22;4771;48.726;9.006;2023-03-01T07:23:31;1.80;99.90
9466;DHT22;4771;48.726;9.006;2023-03-01T07:25:58;1.80;99.90
9466;DHT22;4771;48.726;9.006;2023-03-01T07:28:26;1.90;99.90
9466;DHT22;4771;48.726;9.006;2023-03-01T07:30:54;1.90;99.90
9466;DHT22;4771;48.726;9.006;2023-03-01T07:33:22;1.90;99.90
9466;DHT22;4771;48.726;9.006;2023-03-01T07:35:55;1.90;99.90
9466;DHT22;4771;48.726;9.006;2023-03-01T07:38:23;1.80;99.90
9466;DHT22;4771;48.726;9.006;2023-03-01T07:40:49;1.70;99.90
9466;DHT22;4771;48.726;9.006;2023-03-01T07:43:16;1.80;99.90
9466;DHT22;4771;48.726;9.006;2023-03-01T07:45:43;1.90;99.90
9466;DHT22;4771;48.726;9.006;2023-03-01T07:48:10;1.70;99.90
9466;DHT22;4771;48.726;9.006;2023-03-01T07:50:38;1.80;99.90
9466;DHT22;4771;48.726;9.006;2023-03-01T07:53:05;1.80;99.90
9466;DHT22;4771;48.726;9.006;2023-03-01T07:55:32;1.80;99.90
9466;DHT22;4771;48.726;9.006;2023-03-01T07:57:59;1.90;99.90
9466;DHT22;4771;48.726;9.006;2023-03-01T08:00:26;1.90;99.90
9466;DHT22;4771;48.726;9.006;2023-03-01T08:02:53;1.90;99.90
9466;DHT22;4771;48.726;9.006;2023-03-01T08:05:19;1.30;99.90
9466;DHT22;4771;48.726;9.006;2023-03-01T08:07:48;2.00;99.90
9466;DHT22;4771;48.726;9.006;2023-03-01T08:10:16;2.20;99.90
9466;DHT22;4771;48.726;9.006;2023-03-01T08:12:43;1.90;99.90
9466;DHT22;4771;48.726;9.006;2023-03-01T08:15:10;1.90;99.90
9466;DHT22;4771;48.726;9.006;2023-03-01T08:17:37;1.90;99.90
9466;DHT22;4771;48.726;9.006;2023-03-01T08:20:05;1.80;99.90
9466;DHT22;4771;48.726;9.006;2023-03-01T08:22:33;1.80;99.90
9466;DHT22;4771;48.726;9.006;2023-03-01T08:25:01;2.00;99.90
9466;DHT22;4771;48.726;9.006;2023-03-01T08:27:28;1.80;99.90
9466;DHT22;4771;48.726;9.006;2023-03-01T08:29:55;1.90;99.90
9466;DHT22;4771;48.726;9.006;2023-03-01T08:32:22;2.00;99.90
9466;DHT22;4771;48.726;9.006;2023-03-01T08:34:49;2.10;99.90
9466;DHT22;4771;48.726;9.006;2023-03-01T08:37:15;2.30;99.90
9466;DHT22;4771;48.726;9.006;2023-03-01T08:39:42;2.40;99.90
9466;DHT22;4771;48.726;9.006;2023-03-01T08:42:10;2.50;99.90
9466;DHT22;4771;48.726;9.006;2023-03-01T08:44:37;2.50;99.90
9466;DHT22;4771;48.726;9.006;2023-03-01T08:47:04;2.70;99.90
9466;DHT22;4771;48.726;9.006;2023-03-01T08:49:31;2.70;99.90
9466;DHT22;4771;48.726;9.006;2023-03-01T08:51:58;2.80;99.90
9466;DHT22;4771;48.726;9.006;2023-03-01T08:54:25;2.90;99.90
9466;DHT22;4771;48.726;9.006;2023-03-01T08:56:52;3.00;99.90
9466;DHT22;4771;48.726;9.006;2023-03-01T08:59:20;3.30;99.90
9466;DHT22;4771;48.726;9.006;2023-03-01T09:01:47;3.70;99.90
9466;DHT22;4771;48.726;9.006;2023-03-01T09:04:15;4.10;99.90
9466;DHT22;4771;48.726;9.006;2023-03-01T09:06:42;4.40;99.90
9466;DHT22;4771;48.726;9.006;2023-03-01T09:09:13;4.60;99.90
9466;DHT22;4771;48.726;9.006;2023-03-01T09:11:42;4.90;99.60
9466;DHT22;4771;48.726;9.006;2023-03-01T09:14:09;4.80;98.30
9466;DHT22;4771;48.726;9.006;2023-03-01T09:16:37;4.80;98.40
9466;DHT22;4771;48.726;9.006;2023-03-01T09:19:05;4.60;98.50
9466;DHT22;4771;48.726;9.006;2023-03-01T09:21:32;4.40;98.70
9466;DHT22;4771;48.726;9.006;2023-03-01T09:23:59;4.30;98.50
9466;DHT22;4771;48.726;9.006;2023-03-01T09:26:26;4.40;99.00
9466;DHT22;4771;48.726;9.006;2023-03-01T09:28:54;4.40;98.70
9466;DHT22;4771;48.726;9.006;2023-03-01T09:31:23;4.40;98.50
9466;DHT22;4771;48.726;9.006;2023-03-01T09:33:52;4.40;98.00
9466;DHT22;4771;48.726;9.006;2023-03-01T09:36:21;4.50;99.00
9466;DHT22;4771;48.726;9.006;2023-03-01T09:38:49;4.60;98.60
9466;DHT22;4771;48.726;9.006;2023-03-01T09:41:44;4.60;98.20
9466;DHT22;4771;48.726;9.006;2023-03-01T09:44:29;4.50;97.80
9466;DHT22;4771;48.726;9.006;2023-03-01T09:46:58;4.40;98.50
9466;DHT22;4771;48.726;9.006;2023-03-01T09:49:28;4.50;98.40
9466;DHT22;4771;48.726;9.006;2023-03-01T09:51:59;4.60;98.20
9466;DHT22;4771;48.726;9.006;2023-03-01T09:54:26;4.70;97.80
9466;DHT22;4771;48.726;9.006;2023-03-01T09:57:04;4.90;97.10
9466;DHT22;4771;48.726;9.006;2023-03-01T09:59:43;4.60;97.10
9466;DHT22;4771;48.726;9.006;2023-03-01T10:02:23;4.50;97.50
9466;DHT22;4771;48.726;9.006;2023-03-01T10:04:55;4.60;98.00
9466;DHT22;4771;48.726;9.006;2023-03-01T10:07:31;4.70;97.50
9466;DHT22;4771;48.726;9.006;2023-03-01T10:09:59;4.70;97.60
9466;DHT22;4771;48.726;9.006;2023-03-01T10:12:33;4.90;98.40
9466;DHT22;4771;48.726;9.006;2023-03-01T10:15:06;5.20;95.60
9466;DHT22;4771;48.726;9.006;2023-03-01T10:17:39;5.10;96.10
9466;DHT22;4771;48.726;9.006;2023-03-01T10:20:19;5.20;95.70
9466;DHT22;4771;48.726;9.006;2023-03-01T10:22:46;5.10;96.00
9466;DHT22;4771;48.726;9.006;2023-03-01T10:25:20;5.30;96.00
9466;DHT22;4771;48.726;9.006;2023-03-01T10:27:53;5.40;96.50
9466;DHT22;4771;48.726;9.006;2023-03-01T10:30:22;5.50;95.80
9466;DHT22;4771;48.726;9.006;2023-03-01T10:32:53;5.70;96.30
9466;DHT22;4771;48.726;9.006;2023-03-01T10:35:23;6.00;95.80
9466;DHT22;4771;48.726;9.006;2023-03-01T10:37:58;5.90;94.90
9466;DHT22;4771;48.726;9.006;2023-03-01T10:40:25;6.00;94.60
9466;DHT22;4771;48.726;9.006;2023-03-01T10:42:52;6.10;93.80
9466;DHT22;4771;48.726;9.006;2023-03-01T10:45:31;6.20;94.60
9466;DHT22;4771;48.726;9.006;2023-03-01T10:48:13;6.40;94.30
9466;DHT22;4771;48.726;9.006;2023-03-01T10:50:42;6.70;93.40
9466;DHT22;4771;48.726;9.006;2023-03-01T10:53:24;6.90;93.10
9466;DHT22;4771;48.726;9.006;2023-03-01T10:56:00;7.10;92.00
9466;DHT22;4771;48.726;9.006;2023-03-01T10:58:29;7.20;91.70
9466;DHT22;4771;48.726;9.006;2023-03-01T11:00:57;7.30;91.40
9466;DHT22;4771;48.726;9.006;2023-03-01T11:03:27;7.40;88.20
9466;DHT22;4771;48.726;9.006;2023-03-01T11:06:00;7.50;88.30
9466;DHT22;4771;48.726;9.006;2023-03-01T11:08:35;7.50;89.60
9466;DHT22;4771;48.726;9.006;2023-03-01T11:11:22;7.70;85.60
9466;DHT22;4771;48.726;9.006;2023-03-01T11:13:56;7.80;86.40
9466;DHT22;4771;48.726;9.006;2023-03-01T11:16:26;8.00;85.60
9466;DHT22;4771;48.726;9.006;2023-03-01T11:18:58;7.90;81.60
9466;DHT22;4771;48.726;9.006;2023-03-01T11:21:29;8.00;85.30
9466;DHT22;4771;48.726;9.006;2023-03-01T11:24:00;8.10;82.00
9466;DHT22;4771;48.726;9.006;2023-03-01T11:26:28;8.20;79.30
9466;DHT22;4771;48.726;9.006;2023-03-01T11:28:59;8.30;78.50
9466;DHT22;4771;48.726;9.006;2023-03-01T11:31:28;8.30;78.50
9466;DHT22;4771;48.726;9.006;2023-03-01T11:33:59;8.30;78.50
9466;DHT22;4771;48.726;9.006;2023-03-01T11:36:32;8.50;78.70
9466;DHT22;4771;48.726;9.006;2023-03-01T11:39:11;8.60;75.60
9466;DHT22;4771;48.726;9.006;2023-03-01T11:41:40;8.60;74.60
9466;DHT22;4771;48.726;9.006;2023-03-01T11:44:16;8.70;74.10
9466;DHT22;4771;48.726;9.006;2023-03-01T11:50:08;8.80;72.10
9466;DHT22;4771;48.726;9.006;2023-03-01T11:52:48;8.90;70.40
9466;DHT22;4771;48.726;9.006;2023-03-01T11:55:29;8.90;70.00
9466;DHT22;4771;48.726;9.006;2023-03-01T11:58:22;9.10;69.40
9466;DHT22;4771;48.726;9.006;2023-03-01T12:01:02;9.20;70.40
9466;DHT22;4771;48.726;9.006;2023-03-01T12:03:42;9.20;67.20
9466;DHT22;4771;48.726;9.006;2023-03-01T12:06:41;9.20;64.60
9466;DHT22;4771;48.726;9.006;2023-03-01T12:09:21;9.10;67.40
9466;DHT22;4771;48.726;9.006;2023-03-01T12:14:51;9.10;67.90
9466;DHT22;4771;48.726;9.006;2023-03-01T12:20:25;9.20;65.20
9466;DHT22;4771;48.726;9.006;2023-03-01T12:26:00;9.30;63.50
9466;DHT22;4771;48.726;9.006;2023-03-01T12:28:45;9.40;62.00
9466;DHT22;4771;48.726;9.006;2023-03-01T12:31:40;9.40;63.90
9466;DHT22;4771;48.726;9.006;2023-03-01T12:34:19;9.40;62.90
9466;DHT22;4771;48.726;9.006;2023-03-01T12:37:11;9.40;61.30
9466;DHT22;4771;48.726;9.006;2023-03-01T12:39:51;9.40;60.00
9466;DHT22;4771;48.726;9.006;2023-03-01T12:42:27;9.50;60.90
9466;DHT22;4771;48.726;9.006;2023-03-01T12:45:16;9.40;59.70
9466;DHT22;4771;48.726;9.006;2023-03-01T12:47:58;9.40;60.70
9466;DHT22;4771;48.726;9.006;2023-03-01T12:50:36;9.50;61.70
9466;DHT22;4771;48.726;9.006;2023-03-01T12:53:04;9.50;62.70
9466;DHT22;4771;48.726;9.006;2023-03-01T12:55:34;9.40;59.70
9466;DHT22;4771;48.726;9.006;2023-03-01T12:58:16;9.30;61.20
9466;DHT22;4771;48.726;9.006;2023-03-01T13:01:00;9.50;63.20
9466;DHT22;4771;48.726;9.006;2023-03-01T13:03:38;9.60;62.30
9466;DHT22;4771;48.726;9.006;2023-03-01T13:06:15;9.60;59.80
9466;DHT22;4771;48.726;9.006;2023-03-01T13:08:49;9.60;59.60
9466;DHT22;4771;48.726;9.006;2023-03-01T13:11:22;9.50;59.10
9466;DHT22;4771;48.726;9.006;2023-03-01T13:13:50;9.50;59.10
9466;DHT22;4771;48.726;9.006;2023-03-01T13:19:07;9.30;60.10
9466;DHT22;4771;48.726;9.006;2023-03-01T13:21:35;8.60;58.30
9466;DHT22;4771;48.726;9.006;2023-03-01T13:24:02;9.20;59.70
9466;DHT22;4771;48.726;9.006;2023-03-01T13:26:28;9.20;59.90
9466;DHT22;4771;48.726;9.006;2023-03-01T13:28:57;9.40;61.30
9466;DHT22;4771;48.726;9.006;2023-03-01T13:31:59;9.30;60.30
9466;DHT22;4771;48.726;9.006;2023-03-01T13:37:29;9.70;59.90
9466;DHT22;4771;48.726;9.006;2023-03-01T13:39:59;9.40;58.70
9466;DHT22;4771;48.726;9.006;2023-03-01T13:42:41;9.50;60.10
9466;DHT22;4771;48.726;9.006;2023-03-01T13:45:25;9.30;58.30
9466;DHT22;4771;48.726;9.006;2023-03-01T13:48:02;9.40;59.70
9466;DHT22;4771;48.726;9.006;2023-03-01T13:50:36;9.40;59.60
9466;DHT22;4771;48.726;9.006;2023-03-01T13:53:06;9.50;59.70
9466;DHT22;4771;48.726;9.006;2023-03-01T13:55:37;9.50;59.40
9466;DHT22;4771;48.726;9.006;2023-03-01T13:58:15;9.40;58.80
9466;DHT22;4771;48.726;9.006;2023-03-01T14:00:44;9.40;59.30
9466;DHT22;4771;48.726;9.006;2023-03-01T14:03:13;9.30;59.30
9466;DHT22;4771;48.726;9.006;2023-03-01T14:05:42;9.20;58.40
9466;DHT22;4771;48.726;9.006;2023-03-01T14:08:23;9.20;58.90
9466;DHT22;4771;48.726;9.006;2023-03-01T14:10:59;9.20;59.20
9466;DHT22;4771;48.726;9.006;2023-03-01T14:13:39;9.30;59.10
9466;DHT22;4771;48.726;9.006;2023-03-01T14:16:22;9.30;58.20
9466;DHT22;4771;48.726;9.006;2023-03-01T14:18:57;9.20;58.20
9466;DHT22;4771;48.726;9.006;2023-03-01T14:21:27;9.10;59.00
9466;DHT22;4771;48.726;9.006;2023-03-01T14:23:57;9.20;59.40
9466;DHT22;4771;48.726;9.006;2023-03-01T14:26:24;9.10;59.40
9466;DHT22;4771;48.726;9.006;2023-03-01T14:28:51;9.20;59.80
9466;DHT22;4771;48.726;9.006;2023-03-01T14:31:38;9.30;59.20
9466;DHT22;4771;48.726;9.006;2023-03-01T14:34:05;9.40;60.00
9466;DHT22;4771;48.726;9.006;2023-03-01T14:36:33;9.50;59.30
9466;DHT22;4771;48.726;9.006;2023-03-01T14:39:00;9.40;58.90
9466;DHT22;4771;48.726;9.006;2023-03-01T14:41:33;9.30;59.10
9466;DHT22;4771;48.726;9.006;2023-03-01T14:44:03;9.00;57.80
9466;DHT22;4771;48.726;9.006;2023-03-01T14:46:34;9.00;58.50
9466;DHT22;4771;48.726;9.006;2023-03-01T14:49:04;8.90;59.50
9466;DHT22;4771;48.726;9.006;2023-03-01T14:51:36;8.90;59.70
9466;DHT22;4771;48.726;9.006;2023-03-01T14:54:05;9.00;60.00
9466;DHT22;4771;48.726;9.006;2023-03-01T14:56:44;8.90;59.60
9466;DHT22;4771;48.726;9.006;2023-03-01T14:59:11;8.80;59.00
9466;DHT22;4771;48.726;9.006;2023-03-01T15:01:39;8.60;59.50
9466;DHT22;4771;48.726;9.006;2023-03-01T15:04:11;8.50;60.40
9466;DHT22;4771;48.726;9.006;2023-03-01T15:06:38;8.40;60.40
9466;DHT22;4771;48.726;9.006;2023-03-01T15:09:06;8.40;60.30
9466;DHT22;4771;48.726;9.006;2023-03-01T15:11:37;8.40;61.80
9466;DHT22;4771;48.726;9.006;2023-03-01T15:14:25;8.40;61.70
9466;DHT22;4771;48.726;9.006;2023-03-01T15:16:52;8.30;62.50
9466;DHT22;4771;48.726;9.006;2023-03-01T15:19:21;8.40;62.10
9466;DHT22;4771;48.726;9.006;2023-03-01T15:21:50;8.30;62.50
9466;DHT22;4771;48.726;9.006;2023-03-01T15:24:20;8.20;63.40
9466;DHT22;4771;48.726;9.006;2023-03-01T15:26:52;8.10;63.70
9466;DHT22;4771;48.726;9.006;2023-03-01T15:29:22;8.10;65.10
9466;DHT22;4771;48.726;9.006;2023-03-01T15:31:57;8.00;64.20
9466;DHT22;4771;48.726;9.006;2023-03-01T15:34:27;8.10;64.30
9466;DHT22;4771;48.726;9.006;2023-03-01T15:36:56;8.10;64.50
9466;DHT22;4771;48.726;9.006;2023-03-01T15:39:36;8.00;65.30
9466;DHT22;4771;48.726;9.006;2023-03-01T15:42:05;8.00;65.10
9466;DHT22;4771;48.726;9.006;2023-03-01T15:44:34;7.80;65.50
9466;DHT22;4771;48.726;9.006;2023-03-01T15:47:01;7.70;66.00
9466;DHT22;4771;48.726;9.006;2023-03-01T15:49:37;7.60;66.40
9466;DHT22;4771;48.726;9.006;2023-03-01T15:52:08;7.60;66.00
9466;DHT22;4771;48.726;9.006;2023-03-01T15:54:39;7.60;66.80
9466;DHT22;4771;48.726;9.006;2023-03-01T15:57:10;7.60;66.50
9466;DHT22;4771;48.726;9.006;2023-03-01T15:59:38;7.60;66.70
9466;DHT22;4771;48.726;9.006;2023-03-01T16:02:08;7.50;66.90
9466;DHT22;4771;48.726;9.006;2023-03-01T16:04:37;7.50;67.00
9466;DHT22;4771;48.726;9.006;2023-03-01T16:07:04;7.60;67.40
9466;DHT22;4771;48.726;9.006;2023-03-01T16:09:31;7.50;67.00
9466;DHT22;4771;48.726;9.006;2023-03-01T16:11:58;7.50;67.30
9466;DHT22;4771;48.726;9.006;2023-03-01T16:14:25;7.40;67.20
9466;DHT22;4771;48.726;9.006;2023-03-01T16:16:52;7.40;67.00
9466;DHT22;4771;48.726;9.006;2023-03-01T16:19:19;7.40;67.20
9466;DHT22;4771;48.726;9.006;2023-03-01T16:21:47;7.10;67.70
9466;DHT22;4771;48.726;9.006;2023-03-01T16:24:15;7.10;67.90
9466;DHT22;4771;48.726;9.006;2023-03-01T16:26:42;7.10;68.00
9466;DHT22;4771;48.726;9.006;2023-03-01T16:29:09;7.50;68.10
9466;DHT22;4771;48.726;9.006;2023-03-01T16:31:36;7.20;67.90
9466;DHT22;4771;48.726;9.006;2023-03-01T16:34:03;7.10;68.10
9466;DHT22;4771;48.726;9.006;2023-03-01T16:36:30;7.00;68.70
9466;DHT22;4771;48.726;9.006;2023-03-01T16:38:59;7.00;68.90
9466;DHT22;4771;48.726;9.006;2023-03-01T16:41:28;7.00;68.60
9466;DHT22;4771;48.726;9.006;2023-03-01T16:43:55;6.90;68.70
9466;DHT22;4771;48.726;9.006;2023-03-01T16:46:24;6.90;68.80
9466;DHT22;4771;48.726;9.006;2023-03-01T16:48:51;6.90;69.00
9466;DHT22;4771;48.726;9.006;2023-03-01T16:51:19;6.80;69.30
9466;DHT22;4771;48.726;9.006;2023-03-01T16:53:47;6.80;69.50